Αρχική σελίδα
METAR-TAF:

METAR-TAF

Αεροδρόμια :

Διεθνές Αεροδρόμιο του Καΐρου

Κάιρο, Αίγυπτος

γεωγραφικό πλάτος: 30-08N, γεωγραφικό μήκος: 031-24E, υψόμετρο: 64 μ

Παρών καιρός

Η αναφορά έγινε 10 λεπτά πριν, στις 16:30 UTC
Άνεμος 6 kt από Β
Θερμοκρασία 15°C
Υγρασία 55%
Πίεση 1021 hPa
Ορατότητα: 6000 μ
Λίγα νέφη σε ύψος 2500 πόδια
Διάσπαρτα νέφη σε ύψος 7000 πόδια

METAR: HECA 181630Z 36006KT 6000 FEW025 SCT070 15/06 Q1021 NOSIG

Χρόνος: 18:40 (16:40 UTC)

Πρόγνωση Καιρού

Η αναφορά έγινε 5 ώρες και 40 λεπτά πριν, στις 11:00 UTC
Η πρόγνωση ισχύει από τις 18 στις 12 UTC έως τις 19 στις 18 UTC
Άνεμος 10 kt από
Ορατότητα 10 χλμ και άνω
Διάσπαρτα νέφη σε ύψος 2500 πόδια
Προσωρινά
από 19 στις 00 UTC έως τις 19 στις 06 UTC
Άνεμος 3 kt από μεταβλητές κατευθύνσεις
Ορατότητα: 4000 μ
καταχνιά

TAF: HECA 181100Z 1812/1918 31010KT 9999 SCT025 TEMPO 1900/1906 VRB03KT 4000 HZ NSC

Μετεωρολογικές αναφορές και προγνώσεις για περισσότερα από 4000 αεροδρόμια (δελτία METAR και TAF).

Οι διαθέσιμοι σταθμοί απεικονίζονται στο χάρτη με κίτρινες και κόκκινες κουκκίδες.

Μετακινήστε το ποντίκι πάνω από τις κουκκίδες για να δείτε το όνομα του σταθμού.

Στη συνέχεια, κάντε κλικ για να δείτε τις μετεωρολογικές αναφορές και τις προγνώσεις καιρού.

Για να αλλάξετε το χάρτη: κάντε κλικ στα πράσινα κουμπιά με τον μαύρο σταυρό για να ζουμάρετε, στο πράσινο κουμπί με την παύλα για να αφαιρέσετε το ζουμ ή στα πράσινα βέλη για να αντιπαραβάλλετε χάρτες.


METAR-TAF: